sensor_id;sensor_type;location;lat;lon;timestamp;temperature;humidity
23991;DHT22;12205;50.600;4.608;2023-04-15T00:00:15;9.70;99.90
23991;DHT22;12205;50.600;4.608;2023-04-15T00:02:45;9.70;99.90
23991;DHT22;12205;50.600;4.608;2023-04-15T00:05:12;9.80;99.90
23991;DHT22;12205;50.600;4.608;2023-04-15T00:07:39;9.80;99.90
23991;DHT22;12205;50.600;4.608;2023-04-15T00:10:07;9.80;99.90
23991;DHT22;12205;50.600;4.608;2023-04-15T00:12:34;9.80;99.90
23991;DHT22;12205;50.600;4.608;2023-04-15T00:15:01;9.90;99.90
23991;DHT22;12205;50.600;4.608;2023-04-15T00:17:29;9.80;99.90
23991;DHT22;12205;50.600;4.608;2023-04-15T00:19:57;9.90;99.90
23991;DHT22;12205;50.600;4.608;2023-04-15T00:22:24;9.90;99.90
23991;DHT22;12205;50.600;4.608;2023-04-15T00:24:52;9.90;99.90
23991;DHT22;12205;50.600;4.608;2023-04-15T00:27:19;9.90;99.90
23991;DHT22;12205;50.600;4.608;2023-04-15T00:29:46;9.90;99.90
23991;DHT22;12205;50.600;4.608;2023-04-15T00:32:13;9.90;99.90
23991;DHT22;12205;50.600;4.608;2023-04-15T00:34:40;9.80;99.90
23991;DHT22;12205;50.600;4.608;2023-04-15T00:37:09;9.90;99.90
23991;DHT22;12205;50.600;4.608;2023-04-15T00:39:36;9.90;99.90
23991;DHT22;12205;50.600;4.608;2023-04-15T00:42:04;9.90;99.90
23991;DHT22;12205;50.600;4.608;2023-04-15T00:44:32;9.90;99.90
23991;DHT22;12205;50.600;4.608;2023-04-15T00:47:00;9.90;99.90
23991;DHT22;12205;50.600;4.608;2023-04-15T00:49:28;9.80;99.90
23991;DHT22;12205;50.600;4.608;2023-04-15T00:51:56;9.80;99.90
23991;DHT22;12205;50.600;4.608;2023-04-15T00:54:25;9.80;99.90
23991;DHT22;12205;50.600;4.608;2023-04-15T00:56:52;9.70;99.90
23991;DHT22;12205;50.600;4.608;2023-04-15T00:59:19;9.70;99.90
23991;DHT22;12205;50.600;4.608;2023-04-15T01:01:47;9.70;99.90
23991;DHT22;12205;50.600;4.608;2023-04-15T01:04:15;9.70;99.90
23991;DHT22;12205;50.600;4.608;2023-04-15T01:06:42;9.70;99.90
23991;DHT22;12205;50.600;4.608;2023-04-15T01:09:13;9.70;99.90
23991;DHT22;12205;50.600;4.608;2023-04-15T01:11:41;9.60;99.90
23991;DHT22;12205;50.600;4.608;2023-04-15T01:14:08;9.60;99.90
23991;DHT22;12205;50.600;4.608;2023-04-15T01:16:39;9.60;99.90
23991;DHT22;12205;50.600;4.608;2023-04-15T01:19:16;9.60;99.90
23991;DHT22;12205;50.600;4.608;2023-04-15T01:21:44;9.60;99.90
23991;DHT22;12205;50.600;4.608;2023-04-15T01:24:12;9.60;99.90
23991;DHT22;12205;50.600;4.608;2023-04-15T01:26:42;9.60;99.90
23991;DHT22;12205;50.600;4.608;2023-04-15T01:29:09;9.60;99.90
23991;DHT22;12205;50.600;4.608;2023-04-15T01:31:37;9.60;99.90
23991;DHT22;12205;50.600;4.608;2023-04-15T01:34:04;9.60;99.90
23991;DHT22;12205;50.600;4.608;2023-04-15T01:36:31;9.60;99.90
23991;DHT22;12205;50.600;4.608;2023-04-15T01:39:00;9.60;99.90
23991;DHT22;12205;50.600;4.608;2023-04-15T01:41:27;9.60;99.90
23991;DHT22;12205;50.600;4.608;2023-04-15T01:43:56;9.60;99.90
23991;DHT22;12205;50.600;4.608;2023-04-15T01:46:23;9.70;99.90
23991;DHT22;12205;50.600;4.608;2023-04-15T01:48:50;9.60;99.90
23991;DHT22;12205;50.600;4.608;2023-04-15T01:51:22;9.60;99.90
23991;DHT22;12205;50.600;4.608;2023-04-15T01:53:49;9.60;99.90
23991;DHT22;12205;50.600;4.608;2023-04-15T01:56:17;9.60;99.90
23991;DHT22;12205;50.600;4.608;2023-04-15T01:58:44;9.60;99.90
23991;DHT22;12205;50.600;4.608;2023-04-15T02:01:12;9.60;99.90
23991;DHT22;12205;50.600;4.608;2023-04-15T02:03:41;9.60;99.90
23991;DHT22;12205;50.600;4.608;2023-04-15T02:06:08;9.60;99.90
23991;DHT22;12205;50.600;4.608;2023-04-15T02:08:35;9.60;99.90
23991;DHT22;12205;50.600;4.608;2023-04-15T02:11:03;9.50;99.90
23991;DHT22;12205;50.600;4.608;2023-04-15T02:13:31;9.50;99.90
23991;DHT22;12205;50.600;4.608;2023-04-15T02:15:58;9.50;99.90
23991;DHT22;12205;50.600;4.608;2023-04-15T02:18:26;9.50;99.90
23991;DHT22;12205;50.600;4.608;2023-04-15T02:20:53;9.50;99.90
23991;DHT22;12205;50.600;4.608;2023-04-15T02:23:21;9.50;99.90
23991;DHT22;12205;50.600;4.608;2023-04-15T02:25:48;9.50;99.90
23991;DHT22;12205;50.600;4.608;2023-04-15T02:28:18;9.50;99.90
23991;DHT22;12205;50.600;4.608;2023-04-15T02:30:47;9.60;99.90
23991;DHT22;12205;50.600;4.608;2023-04-15T02:33:15;9.50;99.90
23991;DHT22;12205;50.600;4.608;2023-04-15T02:35:43;9.50;99.90
23991;DHT22;12205;50.600;4.608;2023-04-15T02:38:11;9.50;99.90
23991;DHT22;12205;50.600;4.608;2023-04-15T02:40:38;9.50;99.90
23991;DHT22;12205;50.600;4.608;2023-04-15T02:43:06;9.50;99.90
23991;DHT22;12205;50.600;4.608;2023-04-15T02:45:34;9.50;99.90
23991;DHT22;12205;50.600;4.608;2023-04-15T02:48:04;9.40;99.90
23991;DHT22;12205;50.600;4.608;2023-04-15T02:50:34;9.40;99.90
23991;DHT22;12205;50.600;4.608;2023-04-15T02:53:04;9.40;99.90
23991;DHT22;12205;50.600;4.608;2023-04-15T02:55:32;9.40;99.90
23991;DHT22;12205;50.600;4.608;2023-04-15T02:57:59;9.40;99.90
23991;DHT22;12205;50.600;4.608;2023-04-15T03:00:26;9.40;99.90
23991;DHT22;12205;50.600;4.608;2023-04-15T03:02:57;9.40;99.90
23991;DHT22;12205;50.600;4.608;2023-04-15T03:05:25;9.40;99.90
23991;DHT22;12205;50.600;4.608;2023-04-15T03:07:53;9.30;99.90
23991;DHT22;12205;50.600;4.608;2023-04-15T03:10:21;9.40;99.90
23991;DHT22;12205;50.600;4.608;2023-04-15T03:12:49;9.40;99.90
23991;DHT22;12205;50.600;4.608;2023-04-15T03:15:18;9.40;99.90
23991;DHT22;12205;50.600;4.608;2023-04-15T03:17:49;9.40;99.90
23991;DHT22;12205;50.600;4.608;2023-04-15T03:20:16;9.40;99.90
23991;DHT22;12205;50.600;4.608;2023-04-15T03:22:43;9.40;99.90
23991;DHT22;12205;50.600;4.608;2023-04-15T03:25:10;9.40;99.90
23991;DHT22;12205;50.600;4.608;2023-04-15T03:27:39;9.50;99.90
23991;DHT22;12205;50.600;4.608;2023-04-15T03:30:07;9.50;99.90
23991;DHT22;12205;50.600;4.608;2023-04-15T03:32:36;9.50;99.90
23991;DHT22;12205;50.600;4.608;2023-04-15T03:35:05;9.40;99.90
23991;DHT22;12205;50.600;4.608;2023-04-15T03:37:32;9.40;99.90
23991;DHT22;12205;50.600;4.608;2023-04-15T03:39:59;9.40;99.90
23991;DHT22;12205;50.600;4.608;2023-04-15T03:42:26;9.40;99.90
23991;DHT22;12205;50.600;4.608;2023-04-15T03:44:55;9.30;99.90
23991;DHT22;12205;50.600;4.608;2023-04-15T03:47:22;9.30;99.90
23991;DHT22;12205;50.600;4.608;2023-04-15T03:49:49;9.30;99.90
23991;DHT22;12205;50.600;4.608;2023-04-15T03:52:16;9.30;99.90
23991;DHT22;12205;50.600;4.608;2023-04-15T03:54:43;9.30;99.90
23991;DHT22;12205;50.600;4.608;2023-04-15T03:57:10;9.30;99.90
23991;DHT22;12205;50.600;4.608;2023-04-15T03:59:37;9.30;99.90
23991;DHT22;12205;50.600;4.608;2023-04-15T04:02:05;9.30;99.90
23991;DHT22;12205;50.600;4.608;2023-04-15T04:04:32;9.30;99.90
23991;DHT22;12205;50.600;4.608;2023-04-15T04:06:59;9.30;99.90
23991;DHT22;12205;50.600;4.608;2023-04-15T04:09:26;9.30;99.90
23991;DHT22;12205;50.600;4.608;2023-04-15T04:11:56;9.20;99.90
23991;DHT22;12205;50.600;4.608;2023-04-15T04:14:23;9.20;99.90
23991;DHT22;12205;50.600;4.608;2023-04-15T04:16:54;9.20;99.90
23991;DHT22;12205;50.600;4.608;2023-04-15T04:19:23;9.20;99.90
23991;DHT22;12205;50.600;4.608;2023-04-15T04:21:50;9.20;99.90
23991;DHT22;12205;50.600;4.608;2023-04-15T04:24:18;9.20;99.90
23991;DHT22;12205;50.600;4.608;2023-04-15T04:26:45;9.20;99.90
23991;DHT22;12205;50.600;4.608;2023-04-15T04:29:12;9.20;99.90
23991;DHT22;12205;50.600;4.608;2023-04-15T04:31:39;9.20;99.90
23991;DHT22;12205;50.600;4.608;2023-04-15T04:34:06;9.20;99.90
23991;DHT22;12205;50.600;4.608;2023-04-15T04:36:34;9.20;99.90
23991;DHT22;12205;50.600;4.608;2023-04-15T04:39:01;9.20;99.90
23991;DHT22;12205;50.600;4.608;2023-04-15T04:41:28;9.20;99.90
23991;DHT22;12205;50.600;4.608;2023-04-15T04:43:57;9.20;99.90
23991;DHT22;12205;50.600;4.608;2023-04-15T04:46:24;9.20;99.90
23991;DHT22;12205;50.600;4.608;2023-04-15T04:48:51;9.20;99.90
23991;DHT22;12205;50.600;4.608;2023-04-15T04:51:20;9.10;99.90
23991;DHT22;12205;50.600;4.608;2023-04-15T04:53:48;9.20;99.90
23991;DHT22;12205;50.600;4.608;2023-04-15T04:56:15;9.10;99.90
23991;DHT22;12205;50.600;4.608;2023-04-15T04:58:42;9.20;99.90
23991;DHT22;12205;50.600;4.608;2023-04-15T05:01:09;9.10;99.90
23991;DHT22;12205;50.600;4.608;2023-04-15T05:03:37;9.10;99.90
23991;DHT22;12205;50.600;4.608;2023-04-15T05:06:04;9.10;99.90
23991;DHT22;12205;50.600;4.608;2023-04-15T05:08:33;9.10;99.90
23991;DHT22;12205;50.600;4.608;2023-04-15T05:11:02;9.10;99.90
23991;DHT22;12205;50.600;4.608;2023-04-15T05:13:29;9.20;99.90
23991;DHT22;12205;50.600;4.608;2023-04-15T05:15:56;9.20;99.90
23991;DHT22;12205;50.600;4.608;2023-04-15T05:18:23;9.20;99.90
23991;DHT22;12205;50.600;4.608;2023-04-15T05:20:50;9.20;99.90
23991;DHT22;12205;50.600;4.608;2023-04-15T05:23:17;9.20;99.90
23991;DHT22;12205;50.600;4.608;2023-04-15T05:25:44;9.20;99.90
23991;DHT22;12205;50.600;4.608;2023-04-15T05:28:13;9.20;99.90
23991;DHT22;12205;50.600;4.608;2023-04-15T05:30:40;9.20;99.90
23991;DHT22;12205;50.600;4.608;2023-04-15T05:33:07;9.30;99.90
23991;DHT22;12205;50.600;4.608;2023-04-15T05:35:34;9.20;99.90
23991;DHT22;12205;50.600;4.608;2023-04-15T05:38:04;9.20;99.90
23991;DHT22;12205;50.600;4.608;2023-04-15T05:40:31;9.30;99.90
23991;DHT22;12205;50.600;4.608;2023-04-15T05:42:59;9.20;99.90
23991;DHT22;12205;50.600;4.608;2023-04-15T05:45:27;9.30;99.90
23991;DHT22;12205;50.600;4.608;2023-04-15T05:47:54;9.30;99.90
23991;DHT22;12205;50.600;4.608;2023-04-15T05:50:21;9.30;99.90
23991;DHT22;12205;50.600;4.608;2023-04-15T05:52:51;9.30;99.90
23991;DHT22;12205;50.600;4.608;2023-04-15T05:55:18;9.30;99.90
23991;DHT22;12205;50.600;4.608;2023-04-15T05:57:48;9.30;99.90
23991;DHT22;12205;50.600;4.608;2023-04-15T06:00:15;9.30;99.90
23991;DHT22;12205;50.600;4.608;2023-04-15T06:02:43;9.30;99.90
23991;DHT22;12205;50.600;4.608;2023-04-15T06:05:10;9.30;99.90
23991;DHT22;12205;50.600;4.608;2023-04-15T06:07:41;9.40;99.90
23991;DHT22;12205;50.600;4.608;2023-04-15T06:10:09;9.40;99.90
23991;DHT22;12205;50.600;4.608;2023-04-15T06:12:36;9.40;99.90
23991;DHT22;12205;50.600;4.608;2023-04-15T06:15:03;9.40;99.90
23991;DHT22;12205;50.600;4.608;2023-04-15T06:17:31;9.50;99.90
23991;DHT22;12205;50.600;4.608;2023-04-15T06:19:59;9.50;99.90
23991;DHT22;12205;50.600;4.608;2023-04-15T06:22:26;9.50;99.90
23991;DHT22;12205;50.600;4.608;2023-04-15T06:24:53;9.50;99.90
23991;DHT22;12205;50.600;4.608;2023-04-15T06:27:20;9.60;99.90
23991;DHT22;12205;50.600;4.608;2023-04-15T06:29:47;9.60;99.90
23991;DHT22;12205;50.600;4.608;2023-04-15T06:32:14;9.70;99.90
23991;DHT22;12205;50.600;4.608;2023-04-15T06:34:41;9.70;99.90
23991;DHT22;12205;50.600;4.608;2023-04-15T06:37:10;9.80;99.90
23991;DHT22;12205;50.600;4.608;2023-04-15T06:39:40;9.80;99.90
23991;DHT22;12205;50.600;4.608;2023-04-15T06:42:08;9.90;99.90
23991;DHT22;12205;50.600;4.608;2023-04-15T06:44:36;10.00;99.90
23991;DHT22;12205;50.600;4.608;2023-04-15T06:47:03;10.00;99.90
23991;DHT22;12205;50.600;4.608;2023-04-15T06:49:30;10.00;99.90
23991;DHT22;12205;50.600;4.608;2023-04-15T06:51:58;10.10;99.90
23991;DHT22;12205;50.600;4.608;2023-04-15T06:54:26;10.10;99.90
23991;DHT22;12205;50.600;4.608;2023-04-15T06:56:53;10.20;99.90
23991;DHT22;12205;50.600;4.608;2023-04-15T06:59:20;10.20;99.90
23991;DHT22;12205;50.600;4.608;2023-04-15T07:01:47;10.30;99.90
23991;DHT22;12205;50.600;4.608;2023-04-15T07:04:14;10.30;99.90
23991;DHT22;12205;50.600;4.608;2023-04-15T07:06:42;10.30;99.90
23991;DHT22;12205;50.600;4.608;2023-04-15T07:09:10;10.40;99.90
23991;DHT22;12205;50.600;4.608;2023-04-15T07:11:40;10.40;99.90
23991;DHT22;12205;50.600;4.608;2023-04-15T07:14:07;10.50;99.90
23991;DHT22;12205;50.600;4.608;2023-04-15T07:16:34;10.60;99.90
23991;DHT22;12205;50.600;4.608;2023-04-15T07:19:02;10.70;99.90
23991;DHT22;12205;50.600;4.608;2023-04-15T07:21:29;10.70;99.90
23991;DHT22;12205;50.600;4.608;2023-04-15T07:23:56;10.80;99.90
23991;DHT22;12205;50.600;4.608;2023-04-15T07:26:23;10.80;99.90
23991;DHT22;12205;50.600;4.608;2023-04-15T07:28:51;10.80;99.90
23991;DHT22;12205;50.600;4.608;2023-04-15T07:31:18;10.80;99.90
23991;DHT22;12205;50.600;4.608;2023-04-15T07:33:45;10.80;99.90
23991;DHT22;12205;50.600;4.608;2023-04-15T07:36:12;10.80;99.90
23991;DHT22;12205;50.600;4.608;2023-04-15T07:38:40;10.80;99.90
23991;DHT22;12205;50.600;4.608;2023-04-15T07:41:07;10.80;99.90
23991;DHT22;12205;50.600;4.608;2023-04-15T07:43:35;10.80;99.90
23991;DHT22;12205;50.600;4.608;2023-04-15T07:46:03;10.80;99.90
23991;DHT22;12205;50.600;4.608;2023-04-15T07:48:31;10.90;99.90
23991;DHT22;12205;50.600;4.608;2023-04-15T07:50:58;11.00;99.90
23991;DHT22;12205;50.600;4.608;2023-04-15T07:53:25;11.00;99.90
23991;DHT22;12205;50.600;4.608;2023-04-15T07:55:55;11.00;99.90
23991;DHT22;12205;50.600;4.608;2023-04-15T07:58:22;11.00;99.90
23991;DHT22;12205;50.600;4.608;2023-04-15T08:00:50;11.00;99.90
23991;DHT22;12205;50.600;4.608;2023-04-15T08:03:18;11.00;99.90
23991;DHT22;12205;50.600;4.608;2023-04-15T08:05:46;11.00;99.90
23991;DHT22;12205;50.600;4.608;2023-04-15T08:08:13;11.00;99.90
23991;DHT22;12205;50.600;4.608;2023-04-15T08:10:40;11.00;99.90
23991;DHT22;12205;50.600;4.608;2023-04-15T08:13:07;11.10;99.90
23991;DHT22;12205;50.600;4.608;2023-04-15T08:15:34;11.00;99.90
23991;DHT22;12205;50.600;4.608;2023-04-15T08:18:01;11.10;99.90
23991;DHT22;12205;50.600;4.608;2023-04-15T08:20:29;11.10;99.90
23991;DHT22;12205;50.600;4.608;2023-04-15T08:22:56;11.10;99.90
23991;DHT22;12205;50.600;4.608;2023-04-15T08:25:23;11.20;99.90
23991;DHT22;12205;50.600;4.608;2023-04-15T08:27:50;11.30;99.90
23991;DHT22;12205;50.600;4.608;2023-04-15T08:30:17;11.30;99.90
23991;DHT22;12205;50.600;4.608;2023-04-15T08:32:45;11.30;99.90
23991;DHT22;12205;50.600;4.608;2023-04-15T08:35:12;11.30;99.90
23991;DHT22;12205;50.600;4.608;2023-04-15T08:37:41;11.30;99.90
23991;DHT22;12205;50.600;4.608;2023-04-15T08:40:10;11.30;99.90
23991;DHT22;12205;50.600;4.608;2023-04-15T08:42:42;11.40;99.90
23991;DHT22;12205;50.600;4.608;2023-04-15T08:45:09;11.50;99.90
23991;DHT22;12205;50.600;4.608;2023-04-15T08:47:37;11.60;99.90
23991;DHT22;12205;50.600;4.608;2023-04-15T08:50:08;11.70;99.90
23991;DHT22;12205;50.600;4.608;2023-04-15T08:52:36;11.80;99.90
23991;DHT22;12205;50.600;4.608;2023-04-15T08:55:05;11.90;99.90
23991;DHT22;12205;50.600;4.608;2023-04-15T08:57:35;12.00;99.90
23991;DHT22;12205;50.600;4.608;2023-04-15T09:00:03;12.10;99.90
23991;DHT22;12205;50.600;4.608;2023-04-15T09:02:31;12.30;99.90
23991;DHT22;12205;50.600;4.608;2023-04-15T09:04:58;12.40;99.90
23991;DHT22;12205;50.600;4.608;2023-04-15T09:07:25;12.60;99.90
23991;DHT22;12205;50.600;4.608;2023-04-15T09:09:52;12.70;99.90
23991;DHT22;12205;50.600;4.608;2023-04-15T09:12:20;12.80;99.90
23991;DHT22;12205;50.600;4.608;2023-04-15T09:14:47;12.90;99.90
23991;DHT22;12205;50.600;4.608;2023-04-15T09:17:18;13.00;99.90
23991;DHT22;12205;50.600;4.608;2023-04-15T09:19:45;13.10;99.90
23991;DHT22;12205;50.600;4.608;2023-04-15T09:22:12;13.20;99.90
23991;DHT22;12205;50.600;4.608;2023-04-15T09:24:39;13.20;99.90
23991;DHT22;12205;50.600;4.608;2023-04-15T09:27:08;13.20;99.90
23991;DHT22;12205;50.600;4.608;2023-04-15T09:29:37;13.20;99.90
23991;DHT22;12205;50.600;4.608;2023-04-15T09:32:11;13.30;99.90
23991;DHT22;12205;50.600;4.608;2023-04-15T09:34:38;13.40;99.90
23991;DHT22;12205;50.600;4.608;2023-04-15T09:37:05;13.40;99.90
23991;DHT22;12205;50.600;4.608;2023-04-15T09:39:45;13.50;99.90
23991;DHT22;12205;50.600;4.608;2023-04-15T09:42:12;13.50;99.90
23991;DHT22;12205;50.600;4.608;2023-04-15T09:44:41;13.60;99.90
23991;DHT22;12205;50.600;4.608;2023-04-15T09:47:09;13.60;99.90
23991;DHT22;12205;50.600;4.608;2023-04-15T09:49:35;13.70;99.90
23991;DHT22;12205;50.600;4.608;2023-04-15T09:52:03;13.80;99.90
23991;DHT22;12205;50.600;4.608;2023-04-15T09:54:36;13.80;99.90
23991;DHT22;12205;50.600;4.608;2023-04-15T09:57:07;13.90;99.90
23991;DHT22;12205;50.600;4.608;2023-04-15T09:59:34;13.90;99.90
23991;DHT22;12205;50.600;4.608;2023-04-15T10:02:04;13.90;99.90
23991;DHT22;12205;50.600;4.608;2023-04-15T10:04:34;13.90;99.90
23991;DHT22;12205;50.600;4.608;2023-04-15T10:07:03;14.00;99.90
23991;DHT22;12205;50.600;4.608;2023-04-15T10:09:30;14.00;99.90
23991;DHT22;12205;50.600;4.608;2023-04-15T10:11:59;14.10;99.90
23991;DHT22;12205;50.600;4.608;2023-04-15T10:14:27;14.10;99.90
23991;DHT22;12205;50.600;4.608;2023-04-15T10:17:00;14.10;99.90
23991;DHT22;12205;50.600;4.608;2023-04-15T10:19:30;14.20;99.90
23991;DHT22;12205;50.600;4.608;2023-04-15T10:21:59;14.30;99.90
23991;DHT22;12205;50.600;4.608;2023-04-15T10:24:26;14.30;99.90
23991;DHT22;12205;50.600;4.608;2023-04-15T10:26:54;14.30;99.90
23991;DHT22;12205;50.600;4.608;2023-04-15T10:29:23;14.40;99.90
23991;DHT22;12205;50.600;4.608;2023-04-15T10:31:52;14.40;99.90
23991;DHT22;12205;50.600;4.608;2023-04-15T10:34:20;14.50;99.90
23991;DHT22;12205;50.600;4.608;2023-04-15T10:36:48;14.50;99.90
23991;DHT22;12205;50.600;4.608;2023-04-15T10:39:41;14.50;99.90
23991;DHT22;12205;50.600;4.608;2023-04-15T10:42:10;14.60;99.90
23991;DHT22;12205;50.600;4.608;2023-04-15T10:44:38;14.60;99.90
23991;DHT22;12205;50.600;4.608;2023-04-15T10:47:12;14.60;99.90
23991;DHT22;12205;50.600;4.608;2023-04-15T10:49:44;14.70;99.90
23991;DHT22;12205;50.600;4.608;2023-04-15T10:52:13;14.80;99.90
23991;DHT22;12205;50.600;4.608;2023-04-15T10:54:41;14.80;99.90
23991;DHT22;12205;50.600;4.608;2023-04-15T10:57:13;14.90;99.90
23991;DHT22;12205;50.600;4.608;2023-04-15T11:00:00;14.90;99.90
23991;DHT22;12205;50.600;4.608;2023-04-15T11:02:43;15.00;99.90
23991;DHT22;12205;50.600;4.608;2023-04-15T11:05:11;15.10;99.90
23991;DHT22;12205;50.600;4.608;2023-04-15T11:07:47;15.10;99.90
23991;DHT22;12205;50.600;4.608;2023-04-15T11:13:27;15.30;99.90
23991;DHT22;12205;50.600;4.608;2023-04-15T11:15:58;15.40;99.90
23991;DHT22;12205;50.600;4.608;2023-04-15T11:18:31;15.50;99.90
23991;DHT22;12205;50.600;4.608;2023-04-15T11:21:00;15.50;99.90
23991;DHT22;12205;50.600;4.608;2023-04-15T11:23:31;15.60;99.90
23991;DHT22;12205;50.600;4.608;2023-04-15T11:26:00;15.60;99.90
23991;DHT22;12205;50.600;4.608;2023-04-15T11:28:29;15.70;99.90
23991;DHT22;12205;50.600;4.608;2023-04-15T11:30:57;15.70;99.90
23991;DHT22;12205;50.600;4.608;2023-04-15T11:33:24;15.70;99.90
23991;DHT22;12205;50.600;4.608;2023-04-15T11:35:52;15.80;99.90
23991;DHT22;12205;50.600;4.608;2023-04-15T11:38:19;15.80;99.90
23991;DHT22;12205;50.600;4.608;2023-04-15T11:40:49;15.90;99.90
23991;DHT22;12205;50.600;4.608;2023-04-15T11:43:18;16.10;99.90
23991;DHT22;12205;50.600;4.608;2023-04-15T11:45:51;16.20;99.90
23991;DHT22;12205;50.600;4.608;2023-04-15T11:48:19;16.30;99.90
23991;DHT22;12205;50.600;4.608;2023-04-15T11:50:52;16.50;99.90
23991;DHT22;12205;50.600;4.608;2023-04-15T11:53:19;16.60;99.90
23991;DHT22;12205;50.600;4.608;2023-04-15T11:55:48;16.70;99.90
23991;DHT22;12205;50.600;4.608;2023-04-15T11:58:19;16.90;99.90
23991;DHT22;12205;50.600;4.608;2023-04-15T12:00:47;17.10;99.90
23991;DHT22;12205;50.600;4.608;2023-04-15T12:03:18;17.30;99.90
23991;DHT22;12205;50.600;4.608;2023-04-15T12:06:12;17.30;99.90
23991;DHT22;12205;50.600;4.608;2023-04-15T12:09:03;17.50;99.90
23991;DHT22;12205;50.600;4.608;2023-04-15T12:11:36;17.70;99.90
23991;DHT22;12205;50.600;4.608;2023-04-15T12:14:10;18.00;99.90
23991;DHT22;12205;50.600;4.608;2023-04-15T12:16:39;18.30;99.90
23991;DHT22;12205;50.600;4.608;2023-04-15T12:19:09;18.70;99.90
23991;DHT22;12205;50.600;4.608;2023-04-15T12:21:39;19.00;99.90
23991;DHT22;12205;50.600;4.608;2023-04-15T12:24:07;19.50;99.90
23991;DHT22;12205;50.600;4.608;2023-04-15T12:26:40;19.90;99.90
23991;DHT22;12205;50.600;4.608;2023-04-15T12:29:10;20.20;99.90
23991;DHT22;12205;50.600;4.608;2023-04-15T12:31:46;20.50;99.90
23991;DHT22;12205;50.600;4.608;2023-04-15T12:34:14;20.80;97.40
23991;DHT22;12205;50.600;4.608;2023-04-15T12:36:41;21.20;97.40
23991;DHT22;12205;50.600;4.608;2023-04-15T12:39:08;21.50;92.40
23991;DHT22;12205;50.600;4.608;2023-04-15T12:41:36;21.90;88.70
23991;DHT22;12205;50.600;4.608;2023-04-15T12:44:03;22.20;80.60
23991;DHT22;12205;50.600;4.608;2023-04-15T12:46:31;22.60;89.00
23991;DHT22;12205;50.600;4.608;2023-04-15T12:48:58;23.00;79.70
23991;DHT22;12205;50.600;4.608;2023-04-15T12:51:25;23.30;80.80
23991;DHT22;12205;50.600;4.608;2023-04-15T12:53:53;23.70;81.50
23991;DHT22;12205;50.600;4.608;2023-04-15T12:56:20;24.20;79.50
23991;DHT22;12205;50.600;4.608;2023-04-15T12:58:48;24.50;70.30
23991;DHT22;12205;50.600;4.608;2023-04-15T13:01:16;24.70;72.90
23991;DHT22;12205;50.600;4.608;2023-04-15T13:03:43;24.80;68.40
23991;DHT22;12205;50.600;4.608;2023-04-15T13:06:10;24.80;63.90
23991;DHT22;12205;50.600;4.608;2023-04-15T13:08:37;24.90;64.50
23991;DHT22;12205;50.600;4.608;2023-04-15T13:11:04;25.20;65.60
23991;DHT22;12205;50.600;4.608;2023-04-15T13:13:31;25.50;65.70
23991;DHT22;12205;50.600;4.608;2023-04-15T13:16:00;25.70;65.30
23991;DHT22;12205;50.600;4.608;2023-04-15T13:18:27;25.90;63.80
23991;DHT22;12205;50.600;4.608;2023-04-15T13:20:55;26.10;61.70
23991;DHT22;12205;50.600;4.608;2023-04-15T13:23:23;26.30;62.40
23991;DHT22;12205;50.600;4.608;2023-04-15T13:25:50;26.40;59.50
23991;DHT22;12205;50.600;4.608;2023-04-15T13:28:17;26.50;57.70
23991;DHT22;12205;50.600;4.608;2023-04-15T13:30:44;26.30;55.40
23991;DHT22;12205;50.600;4.608;2023-04-15T13:33:15;26.10;57.00
23991;DHT22;12205;50.600;4.608;2023-04-15T13:35:43;25.80;54.90
23991;DHT22;12205;50.600;4.608;2023-04-15T13:38:10;25.50;53.10
23991;DHT22;12205;50.600;4.608;2023-04-15T13:40:37;25.30;53.40
23991;DHT22;12205;50.600;4.608;2023-04-15T13:43:04;25.40;55.10
23991;DHT22;12205;50.600;4.608;2023-04-15T13:45:31;25.60;54.40
23991;DHT22;12205;50.600;4.608;2023-04-15T13:47:58;25.90;54.50
23991;DHT22;12205;50.600;4.608;2023-04-15T13:50:26;26.10;51.00
23991;DHT22;12205;50.600;4.608;2023-04-15T13:52:53;26.00;51.10
23991;DHT22;12205;50.600;4.608;2023-04-15T13:55:20;25.90;50.40
23991;DHT22;12205;50.600;4.608;2023-04-15T13:57:47;25.90;50.70
23991;DHT22;12205;50.600;4.608;2023-04-15T14:00:15;26.10;51.40
23991;DHT22;12205;50.600;4.608;2023-04-15T14:02:42;26.10;49.50
23991;DHT22;12205;50.600;4.608;2023-04-15T14:05:09;26.10;52.10
23991;DHT22;12205;50.600;4.608;2023-04-15T14:07:38;26.20;51.60
23991;DHT22;12205;50.600;4.608;2023-04-15T14:10:06;26.40;52.70
23991;DHT22;12205;50.600;4.608;2023-04-15T14:12:33;26.40;51.10
23991;DHT22;12205;50.600;4.608;2023-04-15T14:15:00;26.10;51.50
23991;DHT22;12205;50.600;4.608;2023-04-15T14:17:28;25.90;49.60
23991;DHT22;12205;50.600;4.608;2023-04-15T14:19:56;25.40;48.50
23991;DHT22;12205;50.600;4.608;2023-04-15T14:22:23;25.20;48.90
23991;DHT22;12205;50.600;4.608;2023-04-15T14:24:52;25.20;48.20
23991;DHT22;12205;50.600;4.608;2023-04-15T14:27:20;25.20;49.30
23991;DHT22;12205;50.600;4.608;2023-04-15T14:29:47;25.30;49.00
23991;DHT22;12205;50.600;4.608;2023-04-15T14:35:17;25.90;51.30
23991;DHT22;12205;50.600;4.608;2023-04-15T14:37:55;25.90;51.40
23991;DHT22;12205;50.600;4.608;2023-04-15T14:40:23;25.80;51.70
23991;DHT22;12205;50.600;4.608;2023-04-15T14:43:02;25.10;50.20
23991;DHT22;12205;50.600;4.608;2023-04-15T14:45:30;24.80;51.00
23991;DHT22;12205;50.600;4.608;2023-04-15T14:47:57;24.80;50.40
23991;DHT22;12205;50.600;4.608;2023-04-15T14:50:24;24.90;51.60
23991;DHT22;12205;50.600;4.608;2023-04-15T14:52:51;25.10;53.20
23991;DHT22;12205;50.600;4.608;2023-04-15T14:55:18;25.40;51.90
23991;DHT22;12205;50.600;4.608;2023-04-15T14:57:46;25.30;51.20
23991;DHT22;12205;50.600;4.608;2023-04-15T15:00:14;25.40;51.80
23991;DHT22;12205;50.600;4.608;2023-04-15T15:02:41;25.30;52.60
23991;DHT22;12205;50.600;4.608;2023-04-15T15:05:09;25.10;51.60
23991;DHT22;12205;50.600;4.608;2023-04-15T15:07:36;25.10;52.60
23991;DHT22;12205;50.600;4.608;2023-04-15T15:10:04;25.10;50.40
23991;DHT22;12205;50.600;4.608;2023-04-15T15:12:32;24.90;50.00
23991;DHT22;12205;50.600;4.608;2023-04-15T15:15:01;24.80;51.40
23991;DHT22;12205;50.600;4.608;2023-04-15T15:17:28;24.90;49.10
23991;DHT22;12205;50.600;4.608;2023-04-15T15:19:55;24.70;47.70
23991;DHT22;12205;50.600;4.608;2023-04-15T15:22:22;24.60;48.60
23991;DHT22;12205;50.600;4.608;2023-04-15T15:24:50;24.50;50.40
23991;DHT22;12205;50.600;4.608;2023-04-15T15:27:18;24.60;50.80
23991;DHT22;12205;50.600;4.608;2023-04-15T15:29:45;24.80;50.00
23991;DHT22;12205;50.600;4.608;2023-04-15T15:32:13;25.00;50.70
23991;DHT22;12205;50.600;4.608;2023-04-15T15:34:40;25.10;50.60
23991;DHT22;12205;50.600;4.608;2023-04-15T15:37:07;24.70;50.70
23991;DHT22;12205;50.600;4.608;2023-04-15T15:39:34;24.50;51.40
23991;DHT22;12205;50.600;4.608;2023-04-15T15:42:13;24.30;51.60
23991;DHT22;12205;50.600;4.608;2023-04-15T15:44:40;24.20;50.50
23991;DHT22;12205;50.600;4.608;2023-04-15T15:47:10;24.00;51.50
23991;DHT22;12205;50.600;4.608;2023-04-15T15:49:39;24.00;51.40